Time;durP1;ratioP1;P1;durP2;ratioP2;P2;SDS_P1;SDS_P2;PMS_P1;PMS_P2;Temp;Humidity;BMP_temperature;BMP_pressure;BME280_temperature;BME280_humidity;BME280_pressure;Samples;Min_cycle;Max_cycle;Signal;HPM_P1;HPM_P2
2022/01/19 00:07:41;;;;;;;23.20;15.30;;;;;;;-1.37;84.80;100983.59;437012;1270;142657;-61
2022/01/19 00:17:47;;;;;;;29.00;15.90;;;;;;;-1.41;84.47;100982.35;439876;1268;142434;-62
2022/01/19 00:27:52;;;;;;;37.70;17.70;;;;;;;-1.45;84.47;100971.67;447288;1268;142612;-65
2022/01/19 00:37:58;;;;;;;20.70;12.00;;;;;;;-1.47;84.60;100938.51;446010;1267;142734;-68
2022/01/19 00:48:04;;;;;;;32.70;18.20;;;;;;;-1.45;84.58;100940.92;447447;1269;142457;-68
2022/01/19 00:58:10;;;;;;;32.30;19.20;;;;;;;-1.46;84.41;100939.20;444477;1267;142304;-71
2022/01/19 01:08:16;;;;;;;27.50;16.60;;;;;;;-1.42;84.88;100934.08;438949;1269;142998;-67
2022/01/19 01:18:22;;;;;;;32.60;16.70;;;;;;;-1.44;84.85;100923.40;447198;1267;145414;-67
2022/01/19 01:28:28;;;;;;;23.10;14.90;;;;;;;-1.45;84.51;100901.94;448011;1267;141743;-68
2022/01/19 01:38:34;;;;;;;27.00;12.60;;;;;;;-1.43;84.56;100869.83;447284;1265;142095;-67
2022/01/19 01:48:47;;;;;;;21.50;12.90;;;;;;;-1.38;84.52;100852.67;430625;1267;143104;-66
2022/01/19 01:58:52;;;;;;;21.60;12.20;;;;;;;-1.39;84.68;100827.41;431523;1268;142289;-68
2022/01/19 02:09:06;;;;;;;21.20;11.30;;;;;;;-1.42;84.80;100801.46;437246;1268;141783;-67
2022/01/19 02:30:14;;;;;;;15.90;9.50;;;;;;;-1.31;85.03;100818.88;447893;1266;143332;-68
2022/01/19 02:40:17;;;;;;;14.80;9.30;;;;;;;-1.22;84.81;100791.41;447211;1267;141862;-67
2022/01/19 02:50:22;;;;;;;14.30;8.40;;;;;;;-1.14;84.95;100773.39;447907;1269;141867;-69
2022/01/19 03:10:53;;;;;;;20.80;9.00;;;;;;;-1.08;85.35;100727.88;433804;1267;142378;-68
2022/01/19 03:20:59;;;;;;;22.90;11.60;;;;;;;-1.04;85.27;100692.14;447671;1267;141215;-68
2022/01/19 03:31:06;;;;;;;21.90;11.90;;;;;;;-1.03;85.15;100676.66;435343;1267;142124;-68
2022/01/19 03:41:12;;;;;;;20.70;11.00;;;;;;;-1.08;85.02;100662.22;448008;1267;142383;-69
2022/01/19 03:51:18;;;;;;;21.60;10.80;;;;;;;-1.16;85.39;100646.05;437792;1267;142847;-67
2022/01/19 04:01:23;;;;;;;19.60;12.70;;;;;;;-1.23;85.43;100641.41;447859;1267;143501;-68
2022/01/19 04:11:30;;;;;;;18.80;10.40;;;;;;;-1.22;85.86;100626.46;448004;1267;142616;-68
2022/01/19 04:21:36;;;;;;;17.30;11.00;;;;;;;-1.21;85.70;100617.71;447296;1266;142338;-70
2022/01/19 04:31:41;;;;;;;21.10;11.70;;;;;;;-1.19;85.73;100600.17;447954;1268;142789;-67
2022/01/19 05:03:07;;;;;;;17.90;10.70;;;;;;;-1.04;86.34;100564.42;431512;1270;142049;-68
2022/01/19 05:13:32;;;;;;;14.00;10.00;;;;;;;-1.01;86.37;100550.86;446926;1269;143125;-68
2022/01/19 05:23:38;;;;;;;15.10;10.20;;;;;;;-0.95;86.47;100541.75;447948;1267;143809;-68
2022/01/19 05:33:43;;;;;;;16.90;10.10;;;;;;;-0.87;86.60;100541.20;438897;1268;142633;-68
2022/01/19 05:43:49;;;;;;;14.50;9.20;;;;;;;-0.82;86.65;100533.11;431170;1268;142409;-69
2022/01/19 05:53:55;;;;;;;15.00;10.30;;;;;;;-0.75;86.59;100529.84;431897;1268;142223;-66
2022/01/19 06:04:01;;;;;;;16.90;9.60;;;;;;;-0.69;86.76;100524.33;436393;1267;141903;-69
2022/01/19 06:14:07;;;;;;;15.50;11.70;;;;;;;-0.63;86.70;100513.13;445020;1267;142402;-68
2022/01/19 06:24:13;;;;;;;15.00;9.30;;;;;;;-0.59;86.76;100500.21;431313;1268;141954;-67
2022/01/19 06:34:19;;;;;;;17.60;10.70;;;;;;;-0.58;86.65;100481.29;437212;1267;142367;-68
2022/01/19 06:44:25;;;;;;;15.60;10.70;;;;;;;-0.54;86.80;100465.27;444595;1268;142697;-68
2022/01/19 06:54:30;;;;;;;18.60;12.10;;;;;;;-0.49;86.68;100455.80;430685;1267;142437;-67
2022/01/19 07:04:39;;;;;;;19.70;12.50;;;;;;;-0.45;86.95;100447.52;434415;1268;141913;-68
2022/01/19 07:14:45;;;;;;;19.40;13.20;;;;;;;-0.38;87.03;100435.10;435166;1267;145032;-68
2022/01/19 07:24:51;;;;;;;26.60;13.70;;;;;;;-0.32;87.06;100427.33;441113;1269;142606;-68
2022/01/19 07:34:57;;;;;;;21.40;13.70;;;;;;;-0.21;86.85;100406.44;434094;1268;142415;-67
2022/01/19 07:45:03;;;;;;;23.40;14.80;;;;;;;-0.09;86.93;100395.34;431191;1268;141878;-67
2022/01/19 07:55:10;;;;;;;15.20;10.00;;;;;;;0.05;86.87;100388.52;442950;1267;142559;-67
2022/01/19 08:05:16;;;;;;;19.70;13.20;;;;;;;0.24;86.91;100377.02;447900;1267;142224;-67
2022/01/19 08:15:22;;;;;;;20.30;12.60;;;;;;;0.43;86.86;100376.33;433836;1267;163239;-66
2022/01/19 08:25:28;;;;;;;20.90;12.60;;;;;;;0.56;86.71;100365.16;441029;1267;142303;-69
2022/01/19 08:35:34;;;;;;;19.30;12.90;;;;;;;0.74;86.37;100366.02;447903;1268;141835;-69
2022/01/19 08:45:40;;;;;;;17.30;11.30;;;;;;;0.87;86.31;100351.73;446375;1268;142695;-69
2022/01/19 08:55:46;;;;;;;16.70;11.60;;;;;;;1.05;86.01;100330.13;447752;1267;141300;-74
2022/01/19 09:05:52;;;;;;;18.30;10.80;;;;;;;1.13;85.58;100314.51;443125;1268;144514;-65
2022/01/19 09:15:57;;;;;;;17.00;11.40;;;;;;;1.18;85.43;100321.17;446660;1268;144678;-62
2022/01/19 09:26:03;;;;;;;14.50;10.00;;;;;;;1.25;85.32;100323.83;442654;1268;142796;-62
2022/01/19 09:36:29;;;;;;;18.20;12.70;;;;;;;1.24;85.12;100326.44;445562;1268;141447;-69
2022/01/19 09:46:35;;;;;;;14.10;12.10;;;;;;;1.25;85.11;100321.08;440201;1267;141915;-65
2022/01/19 09:56:43;;;;;;;17.80;12.50;;;;;;;1.26;84.80;100297.42;448004;1267;141943;-66
2022/01/19 10:06:49;;;;;;;18.50;12.30;;;;;;;1.25;84.76;100270.02;447051;1267;141526;-62
2022/01/19 10:16:59;;;;;;;18.80;11.90;;;;;;;1.23;84.76;100264.17;438243;1268;142603;-62
2022/01/19 10:27:26;;;;;;;15.80;11.70;;;;;;;1.40;84.72;100248.58;447860;1267;141924;-61
2022/01/19 10:37:32;;;;;;;16.00;10.50;;;;;;;1.43;84.31;100235.93;447828;1268;142874;-63
2022/01/19 10:47:47;;;;;;;14.10;10.10;;;;;;;1.41;84.30;100219.57;447793;1268;141752;-62
2022/01/19 10:57:54;;;;;;;16.60;11.10;;;;;;;1.60;84.16;100201.32;446871;1268;142722;-68
2022/01/19 11:08:00;;;;;;;16.30;11.10;;;;;;;1.66;83.96;100185.85;447863;1268;143154;-68
2022/01/19 11:18:06;;;;;;;17.90;10.90;;;;;;;1.58;83.55;100182.89;447997;1268;141745;-69
2022/01/19 11:28:12;;;;;;;19.50;11.90;;;;;;;1.42;83.49;100162.10;447261;1268;142183;-66
2022/01/19 11:38:37;;;;;;;19.70;13.70;;;;;;;1.43;83.72;100141.55;447906;1268;142975;-58
2022/01/19 11:48:46;;;;;;;18.40;12.20;;;;;;;1.43;83.74;100104.80;447059;1268;142066;-59
2022/01/19 11:59:08;;;;;;;18.70;13.20;;;;;;;1.53;83.45;100088.73;436628;1268;141574;-57
2022/01/19 12:09:14;;;;;;;25.20;16.40;;;;;;;1.53;83.38;100069.42;444049;1268;141851;-59
2022/01/19 12:19:23;;;;;;;;;;;;;;;1.54;83.17;100043.86;434196;1269;141961;-59
2022/01/19 12:29:44;;;;;;;24.30;18.40;;;;;;;1.49;83.09;100033.42;439930;1268;127363;-58
2022/01/19 12:39:50;;;;;;;23.90;16.60;;;;;;;1.45;82.99;100017.30;436410;1268;142329;-59
2022/01/19 12:49:57;;;;;;;19.50;12.70;;;;;;;1.37;82.94;100009.34;447764;1268;144246;-59
2022/01/19 13:00:01;;;;;;;;;;;;;;;1.37;82.95;99994.50;433199;1268;145036;-65
2022/01/19 13:10:18;;;;;;;22.50;15.00;;;;;;;1.32;82.99;99981.32;443385;1268;182863;-63
2022/01/19 13:20:28;;;;;;;16.90;12.20;;;;;;;1.29;82.95;99975.33;445090;1268;142382;-67
2022/01/19 13:30:36;;;;;;;21.80;13.30;;;;;;;1.20;82.81;99959.30;447248;1267;142416;-68
2022/01/19 13:40:41;;;;;;;19.30;13.20;;;;;;;1.15;82.79;99941.11;443889;1268;142836;-66
2022/01/19 13:50:50;;;;;;;16.60;11.80;;;;;;;1.18;82.81;99919.14;447577;1268;142085;-64
2022/01/19 14:00:58;;;;;;;20.20;13.60;;;;;;;1.19;82.91;99900.17;440582;1268;195203;-69
2022/01/19 14:11:05;;;;;;;19.30;13.60;;;;;;;1.19;82.90;99890.33;431461;1268;141282;-65
2022/01/19 14:21:12;;;;;;;18.20;13.80;;;;;;;1.10;82.88;99870.17;444283;1270;141225;-69
2022/01/19 14:31:18;;;;;;;20.90;14.10;;;;;;;1.02;82.93;99856.19;447200;1267;142757;-67
2022/01/19 14:41:30;;;;;;;22.60;15.60;;;;;;;0.88;82.92;99838.19;446830;1267;142285;-68
2022/01/19 14:51:39;;;;;;;22.00;16.40;;;;;;;0.71;82.81;99817.67;447291;1267;142135;-72
2022/01/19 15:01:50;;;;;;;25.10;16.40;;;;;;;0.34;82.86;99795.65;444588;1266;142542;-65
2022/01/19 15:11:56;;;;;;;30.30;18.10;;;;;;;-0.10;83.28;99787.80;445526;1267;184101;-63
2022/01/19 15:22:01;;;;;;;31.40;20.00;;;;;;;-0.45;83.59;99764.80;447318;1267;141394;-69
2022/01/19 15:32:08;;;;;;;24.20;18.00;;;;;;;-0.72;83.95;99734.96;447971;1267;141908;-69
2022/01/19 15:42:15;;;;;;;28.40;20.50;;;;;;;-0.95;84.20;99725.30;447862;1267;142211;-74
2022/01/19 15:52:25;;;;;;;33.90;20.20;;;;;;;-1.13;84.74;99697.75;447419;1267;142852;-71
2022/01/19 16:02:30;;;;;;;31.80;20.20;;;;;;;-1.29;85.09;99678.38;447955;1267;141733;-71
2022/01/19 16:12:37;;;;;;;36.70;24.40;;;;;;;-1.39;85.49;99664.44;447272;1268;142118;-61
2022/01/19 16:33:06;;;;;;;34.90;21.10;;;;;;;-1.61;85.90;99632.45;447941;1267;141890;-61
2022/01/19 16:43:12;;;;;;;33.70;21.20;;;;;;;-1.73;86.10;99610.27;447032;1266;144157;-62
2022/01/19 16:53:19;;;;;;;38.50;22.90;;;;;;;-1.78;86.09;99592.16;448028;1266;141290;-62
2022/01/19 17:03:25;;;;;;;32.90;20.70;;;;;;;-1.86;86.05;99579.73;442106;1267;142610;-62
2022/01/19 17:13:37;;;;;;;32.20;21.00;;;;;;;-1.90;86.19;99560.22;447617;1267;145305;-66
2022/01/19 17:23:46;;;;;;;34.20;22.40;;;;;;;-1.95;85.91;99536.27;440995;1267;141091;-64
2022/01/19 17:33:52;;;;;;;37.00;21.70;;;;;;;-2.02;85.91;99521.45;447288;1267;141880;-65
2022/01/19 17:43:57;;;;;;;36.20;24.20;;;;;;;-2.08;85.96;99504.02;447812;1267;141945;-64
2022/01/19 17:54:04;;;;;;;35.40;22.20;;;;;;;-2.15;86.13;99477.01;448032;1267;141308;-63
2022/01/19 18:04:10;;;;;;;37.40;24.50;;;;;;;-2.17;86.07;99438.13;447254;1265;141347;-64
2022/01/19 18:14:16;;;;;;;50.20;27.60;;;;;;;-2.21;86.10;99407.64;447986;1267;142263;-65
2022/01/19 18:24:42;;;;;;;46.00;27.70;;;;;;;-2.22;86.02;99387.41;442037;1267;142069;-63
2022/01/19 18:34:48;;;;;;;45.80;28.30;;;;;;;-2.28;86.20;99365.39;435853;1269;141330;-64
2022/01/19 18:44:54;;;;;;;37.20;24.90;;;;;;;-2.36;86.13;99334.13;440055;1269;143319;-64
2022/01/19 18:55:00;;;;;;;58.10;33.80;;;;;;;-2.42;86.06;99314.67;446891;1267;143813;-64
2022/01/19 19:05:07;;;;;;;39.60;23.90;;;;;;;-2.45;86.10;99291.21;439125;1267;142199;-63
2022/01/19 19:15:16;;;;;;;37.50;24.80;;;;;;;-2.49;86.05;99271.06;447873;1267;142106;-65
2022/01/19 19:25:25;;;;;;;34.50;22.50;;;;;;;-2.50;85.98;99251.52;447840;1268;141691;-63
2022/01/19 19:35:32;;;;;;;30.70;19.40;;;;;;;-2.49;85.84;99239.00;447755;1267;142754;-64
2022/01/19 19:45:38;;;;;;;33.70;19.40;;;;;;;-2.45;85.78;99230.89;446897;1268;143381;-65
2022/01/19 19:55:45;;;;;;;36.00;20.50;;;;;;;-2.42;85.38;99221.58;447655;1268;143508;-64
2022/01/19 20:05:52;;;;;;;34.40;19.80;;;;;;;-2.42;85.32;99203.23;447899;1269;141669;-64
2022/01/19 20:15:59;;;;;;;34.50;20.80;;;;;;;-2.42;85.27;99189.35;447009;1269;142142;-64
2022/01/19 20:26:05;;;;;;;31.40;17.50;;;;;;;-2.44;85.31;99178.06;443484;1269;141294;-64
2022/01/19 20:36:11;;;;;;;37.80;25.20;;;;;;;-2.51;85.03;99168.41;443435;1269;142006;-64
2022/01/19 20:46:16;;;;;;;;;;;;;;;-2.56;85.10;99144.16;447126;1268;142122;-66
2022/01/19 20:56:22;;;;;;;23.80;15.70;;;;;;;-2.60;85.05;99125.36;447935;1267;138192;-66
2022/01/19 21:06:28;;;;;;;27.40;16.20;;;;;;;-2.53;84.93;99110.00;446501;1266;143510;-66
2022/01/19 21:16:34;;;;;;;19.60;14.50;;;;;;;-2.56;84.54;99100.98;438044;1268;141834;-66
2022/01/19 21:26:40;;;;;;;23.70;16.30;;;;;;;-2.60;84.85;99092.30;448053;1267;143782;-66
2022/01/19 21:36:47;;;;;;;26.40;13.00;;;;;;;-2.63;84.75;99087.89;447124;1268;142444;-67
2022/01/19 21:46:54;;;;;;;31.70;19.30;;;;;;;-2.48;84.89;99082.84;447945;1268;141966;-66
2022/01/19 21:57:00;;;;;;;35.00;17.90;;;;;;;-2.13;84.92;99070.66;448044;1267;141644;-67
2022/01/19 22:07:06;;;;;;;27.00;16.30;;;;;;;-1.88;84.44;99055.90;447121;1267;141862;-67
2022/01/19 22:17:12;;;;;;;24.20;15.30;;;;;;;-1.71;84.35;99029.80;448026;1267;142552;-66
2022/01/19 22:27:18;;;;;;;26.90;17.00;;;;;;;-1.61;84.35;99011.20;448038;1268;142240;-66
2022/01/19 22:37:24;;;;;;;25.30;16.30;;;;;;;-1.51;84.02;98990.70;447928;1267;142083;-66
2022/01/19 22:47:29;;;;;;;28.10;18.00;;;;;;;-1.39;83.81;98973.95;448063;1266;142280;-65
2022/01/19 22:57:36;;;;;;;22.60;15.90;;;;;;;-1.31;83.45;98973.56;447156;1267;142716;-61
2022/01/19 23:07:42;;;;;;;24.30;15.80;;;;;;;-1.23;83.41;98953.45;448050;1266;142251;-63
2022/01/19 23:17:47;;;;;;;23.00;15.20;;;;;;;-1.19;83.32;98927.41;448009;1268;145661;-64
2022/01/19 23:27:54;;;;;;;23.40;15.70;;;;;;;-1.15;83.12;98906.85;447312;1266;143172;-62
2022/01/19 23:38:11;;;;;;;23.10;16.50;;;;;;;-1.09;82.88;98890.55;447983;1268;142425;-62
2022/01/19 23:48:20;;;;;;;27.10;17.00;;;;;;;-1.03;83.04;98871.48;439539;1268;146858;-62
2022/01/19 23:58:30;;;;;;;24.20;14.70;;;;;;;-0.98;82.91;98850.73;448029;1267;142569;-63
